Time;durP1;ratioP1;P1;durP2;ratioP2;P2;SDS_P1;SDS_P2;PMS_P1;PMS_P2;Temp;Humidity;BMP_temperature;BMP_pressure;BME280_temperature;BME280_humidity;BME280_pressure;Samples;Min_cycle;Max_cycle;Signal;HPM_P1;HPM_P2
2022/06/17 00:01:42;;;;;;;8.97;7.07;;;;;;;;;;5061048;28;20681;-43
2022/06/17 00:04:09;;;;;;;11.70;8.00;;;;;;;;;;5059092;28;20186;-43
2022/06/17 00:06:37;;;;;;;11.03;7.03;;;;;;;;;;5078811;27;20185;-43
2022/06/17 00:09:05;;;;;;;14.97;7.83;;;;;;;;;;5058996;28;20209;-43
2022/06/17 00:11:36;;;;;;;10.07;7.83;;;;;;;;;;5060003;28;20169;-43
2022/06/17 00:14:02;;;;;;;9.27;7.77;;;;;;;;;;5057437;28;20166;-43
2022/06/17 00:16:29;;;;;;;8.37;7.20;;;;;;;;;;5059556;28;20270;-42
2022/06/17 00:18:55;;;;;;;8.07;7.07;;;;;;;;;;5062095;28;21142;-43
2022/06/17 00:21:27;;;;;;;9.63;8.67;;;;;;;;;;5059794;28;20212;-43
2022/06/17 00:23:53;;;;;;;9.83;7.83;;;;;;;;;;5057950;28;20182;-41
2022/06/17 00:26:20;;;;;;;10.43;8.30;;;;;;;;;;5059585;28;20171;-43
2022/06/17 00:28:48;;;;;;;12.17;8.27;;;;;;;;;;5060334;28;20194;-43
2022/06/17 00:31:14;;;;;;;9.97;8.63;;;;;;;;;;5058330;28;20523;-43
2022/06/17 00:33:40;;;;;;;10.97;8.57;;;;;;;;;;5062394;28;20182;-43
2022/06/17 00:36:10;;;;;;;8.97;6.97;;;;;;;;;;5061990;28;20175;-42
2022/06/17 00:38:36;;;;;;;10.63;8.20;;;;;;;;;;5059174;28;21015;-42
2022/06/17 00:41:21;;;;;;;9.30;7.73;;;;;;;;;;5057453;28;20200;-43
2022/06/17 00:43:47;;;;;;;10.10;7.97;;;;;;;;;;5058720;28;20182;-41
2022/06/17 00:46:22;;;;;;;9.60;8.53;;;;;;;;;;5058497;28;20390;-42
2022/06/17 00:49:11;;;;;;;10.80;8.10;;;;;;;;;;5056838;28;20197;-42
2022/06/17 00:51:59;;;;;;;7.87;7.13;;;;;;;;;;5052799;28;20297;-43
2022/06/17 00:54:29;;;;;;;10.13;8.27;;;;;;;;;;5056862;28;20213;-43
2022/06/17 00:56:56;;;;;;;10.63;8.90;;;;;;;;;;5058057;28;21170;-43
2022/06/17 00:59:24;;;;;;;13.17;8.87;;;;;;;;;;5062420;28;20179;-43
2022/06/17 01:01:53;;;;;;;11.17;9.43;;;;;;;;;;5058985;28;20193;-43
2022/06/17 01:04:22;;;;;;;8.53;7.57;;;;;;;;;;5062831;28;20178;-42
2022/06/17 01:07:01;;;;;;;11.87;8.30;;;;;;;;;;5061139;28;20301;-43
2022/06/17 01:12:19;;;;;;;9.47;8.43;;;;;;;;;;5060534;28;20189;-43
2022/06/17 01:14:45;;;;;;;10.43;8.00;;;;;;;;;;5056749;28;20186;-43
2022/06/17 01:17:13;;;;;;;10.57;8.43;;;;;;;;;;5062974;28;20174;-42
2022/06/17 01:19:44;;;;;;;9.30;8.27;;;;;;;;;;5065455;28;20179;-43
2022/06/17 01:22:26;;;;;;;11.23;8.47;;;;;;;;;;5058350;28;20187;-43
2022/06/17 01:24:54;;;;;;;10.17;7.87;;;;;;;;;;5064397;28;20214;-42
2022/06/17 01:27:22;;;;;;;9.50;8.50;;;;;;;;;;5055750;28;20174;-43
2022/06/17 01:29:48;;;;;;;9.40;8.33;;;;;;;;;;5059473;28;20256;-42
2022/06/17 01:32:16;;;;;;;15.40;9.27;;;;;;;;;;5057113;28;20826;-43
2022/06/17 01:34:42;;;;;;;12.27;9.60;;;;;;;;;;5051031;28;20545;-43
2022/06/17 01:37:08;;;;;;;12.17;8.40;;;;;;;;;;5063755;28;20478;-43
2022/06/17 01:39:34;;;;;;;12.43;9.07;;;;;;;;;;5057199;28;20662;-43
2022/06/17 01:42:01;;;;;;;13.00;9.50;;;;;;;;;;5057788;28;20186;-43
2022/06/17 01:44:33;;;;;;;10.63;8.77;;;;;;;;;;5063194;28;20187;-43
2022/06/17 01:47:00;;;;;;;11.23;9.63;;;;;;;;;;5058575;28;20745;-43
2022/06/17 01:49:38;;;;;;;10.33;8.73;;;;;;;;;;5054190;28;20247;-43
2022/06/17 01:52:24;;;;;;;10.87;9.27;;;;;;;;;;5060666;28;20185;-42
2022/06/17 01:54:53;;;;;;;15.17;10.50;;;;;;;;;;5056058;28;20494;-43
2022/06/17 01:57:24;;;;;;;13.40;9.77;;;;;;;;;;5056445;28;20689;-43
2022/06/17 01:59:52;;;;;;;12.70;8.67;;;;;;;;;;5058525;28;20253;-43
2022/06/17 02:02:18;;;;;;;16.37;10.03;;;;;;;;;;5054769;28;20186;-43
2022/06/17 02:04:47;;;;;;;9.80;8.70;;;;;;;;;;5055276;28;20175;-42
2022/06/17 02:07:18;;;;;;;11.63;9.67;;;;;;;;;;5058999;28;20254;-43
2022/06/17 02:09:44;;;;;;;11.90;10.17;;;;;;;;;;5058976;28;20608;-43
2022/06/17 02:12:11;;;;;;;14.20;10.97;;;;;;;;;;5056612;28;20733;-43
2022/06/17 02:14:37;;;;;;;9.97;8.60;;;;;;;;;;5062696;28;20700;-43
2022/06/17 02:17:04;;;;;;;10.40;9.40;;;;;;;;;;5062083;28;20185;-43
2022/06/17 02:19:32;;;;;;;11.07;8.60;;;;;;;;;;5059854;28;20567;-43
2022/06/17 02:22:01;;;;;;;13.97;10.17;;;;;;;;;;5057113;28;20293;-43
2022/06/17 02:24:28;;;;;;;12.33;9.83;;;;;;;;;;5058718;28;20210;-43
2022/06/17 02:26:54;;;;;;;13.17;10.03;;;;;;;;;;5059812;28;20186;-43
2022/06/17 02:29:21;;;;;;;12.93;10.53;;;;;;;;;;5058466;28;20610;-42
2022/06/17 02:31:48;;;;;;;11.97;8.90;;;;;;;;;;5060862;28;20387;-43
2022/06/17 02:34:16;;;;;;;14.63;9.43;;;;;;;;;;5056989;28;20171;-43
2022/06/17 02:37:01;;;;;;;14.00;9.23;;;;;;;;;;5056173;28;20167;-43
2022/06/17 02:39:27;;;;;;;15.03;10.70;;;;;;;;;;5056635;28;20197;-43
2022/06/17 02:41:54;;;;;;;10.90;9.87;;;;;;;;;;5060220;28;20189;-43
2022/06/17 02:44:25;;;;;;;16.53;10.83;;;;;;;;;;5054728;28;21042;-43
2022/06/17 02:46:54;;;;;;;15.43;10.37;;;;;;;;;;5060425;28;20262;-43
2022/06/17 02:49:25;;;;;;;15.43;11.47;;;;;;;;;;5059202;28;20250;-42
2022/06/17 02:51:51;;;;;;;13.80;11.03;;;;;;;;;;5056511;28;20178;-42
2022/06/17 02:54:30;;;;;;;11.70;10.50;;;;;;;;;;5054186;28;20866;-43
2022/06/17 02:56:57;;;;;;;11.47;9.77;;;;;;;;;;5056860;28;20575;-43
2022/06/17 02:59:32;;;;;;;13.80;10.07;;;;;;;;;;5055503;28;20195;-42
2022/06/17 03:02:01;;;;;;;10.77;9.37;;;;;;;;;;5054833;28;20170;-41
2022/06/17 03:04:28;;;;;;;13.70;10.70;;;;;;;;;;5060334;28;20185;-42
2022/06/17 03:06:54;;;;;;;12.13;10.77;;;;;;;;;;5052110;28;20231;-42
2022/06/17 03:09:23;;;;;;;11.80;9.63;;;;;;;;;;5055692;28;20203;-42
2022/06/17 03:12:07;;;;;;;12.93;10.47;;;;;;;;;;5054474;28;20603;-41
2022/06/17 03:14:40;;;;;;;11.43;8.57;;;;;;;;;;5054783;28;20178;-42
2022/06/17 03:17:07;;;;;;;14.10;10.57;;;;;;;;;;5057289;28;20218;-42
2022/06/17 03:19:36;;;;;;;10.87;9.70;;;;;;;;;;5055751;28;20202;-40
2022/06/17 03:22:03;;;;;;;10.53;9.33;;;;;;;;;;5053665;28;20189;-42
2022/06/17 03:24:34;;;;;;;11.47;9.73;;;;;;;;;;5050739;28;20185;-42
2022/06/17 03:27:05;;;;;;;11.23;9.20;;;;;;;;;;5056505;28;20186;-42
2022/06/17 03:29:32;;;;;;;10.93;8.70;;;;;;;;;;5054607;28;20871;-42
2022/06/17 03:32:01;;;;;;;10.43;8.93;;;;;;;;;;5052054;28;20264;-41
2022/06/17 03:34:37;;;;;;;10.77;8.13;;;;;;;;;;5053216;28;20845;-41
2022/06/17 03:37:04;;;;;;;9.77;8.10;;;;;;;;;;5048856;28;21085;-42
2022/06/17 03:39:32;;;;;;;12.60;8.87;;;;;;;;;;5054927;28;20183;-42
2022/06/17 03:42:06;;;;;;;7.87;7.10;;;;;;;;;;5056238;28;20770;-41
2022/06/17 03:44:37;;;;;;;11.57;8.20;;;;;;;;;;5058334;28;20289;-42
2022/06/17 03:47:05;;;;;;;7.63;6.67;;;;;;;;;;5055084;28;20179;-42
2022/06/17 03:49:42;;;;;;;8.00;6.97;;;;;;;;;;5055608;28;20206;-42
2022/06/17 03:52:35;;;;;;;9.23;7.07;;;;;;;;;;5058160;28;20540;-42
2022/06/17 03:55:01;;;;;;;8.07;6.70;;;;;;;;;;5053557;28;20202;-42
2022/06/17 03:57:30;;;;;;;9.83;7.30;;;;;;;;;;5056286;28;20179;-41
2022/06/17 03:59:56;;;;;;;12.97;7.90;;;;;;;;;;5057803;28;20218;-42
2022/06/17 04:02:26;;;;;;;8.20;6.90;;;;;;;;;;5060282;28;20673;-42
2022/06/17 04:04:53;;;;;;;8.43;7.10;;;;;;;;;;5050566;28;20202;-42
2022/06/17 04:07:19;;;;;;;11.00;7.77;;;;;;;;;;5053293;28;20186;-41
2022/06/17 04:09:47;;;;;;;8.87;7.40;;;;;;;;;;5054535;28;20735;-42
2022/06/17 04:12:13;;;;;;;10.07;7.67;;;;;;;;;;5056811;28;20618;-42
2022/06/17 04:14:45;;;;;;;14.70;7.77;;;;;;;;;;5054274;28;20186;-42
2022/06/17 04:17:14;;;;;;;7.90;7.03;;;;;;;;;;5054096;28;20174;-41
2022/06/17 04:19:42;;;;;;;8.07;7.07;;;;;;;;;;5053741;28;20683;-42
2022/06/17 04:22:17;;;;;;;8.43;7.57;;;;;;;;;;5054550;28;20289;-41
2022/06/17 04:24:45;;;;;;;8.60;6.67;;;;;;;;;;5054473;28;21518;-40
2022/06/17 04:27:13;;;;;;;10.57;7.23;;;;;;;;;;5050651;28;20201;-42
2022/06/17 04:29:44;;;;;;;11.70;8.27;;;;;;;;;;5053879;28;21654;-41
2022/06/17 04:32:19;;;;;;;8.83;7.93;;;;;;;;;;5060433;28;20479;-43
2022/06/17 04:34:45;;;;;;;10.50;8.03;;;;;;;;;;5057592;28;20645;-42
2022/06/17 04:37:20;;;;;;;9.40;8.20;;;;;;;;;;5058779;28;20182;-42
2022/06/17 04:39:53;;;;;;;11.97;8.10;;;;;;;;;;5059899;28;20242;-42
2022/06/17 04:42:22;;;;;;;9.87;7.80;;;;;;;;;;5059357;28;20186;-43
2022/06/17 04:44:50;;;;;;;12.37;8.47;;;;;;;;;;5059099;28;20186;-42
2022/06/17 04:47:19;;;;;;;12.50;8.53;;;;;;;;;;5059327;28;20209;-42
2022/06/17 04:50:05;;;;;;;9.20;8.03;;;;;;;;;;5056425;28;20259;-42
2022/06/17 04:52:34;;;;;;;9.77;7.73;;;;;;;;;;5063313;28;20264;-41
2022/06/17 04:55:01;;;;;;;10.53;8.70;;;;;;;;;;5067306;28;20186;-42
2022/06/17 04:57:28;;;;;;;11.97;8.37;;;;;;;;;;5063959;28;20274;-41
2022/06/17 04:59:58;;;;;;;10.50;8.20;;;;;;;;;;5064414;28;20174;-42
2022/06/17 05:02:25;;;;;;;9.87;7.97;;;;;;;;;;5063498;28;20183;-42
2022/06/17 05:04:53;;;;;;;12.73;9.03;;;;;;;;;;5058783;28;21054;-42
2022/06/17 05:07:19;;;;;;;9.53;8.00;;;;;;;;;;5058487;28;20240;-41
2022/06/17 05:09:49;;;;;;;11.47;8.43;;;;;;;;;;5066348;28;20206;-42
2022/06/17 05:12:20;;;;;;;9.17;7.93;;;;;;;;;;5062584;28;20182;-42
2022/06/17 05:14:54;;;;;;;10.47;9.13;;;;;;;;;;5051159;28;20182;-42
2022/06/17 05:17:21;;;;;;;11.80;8.90;;;;;;;;;;5054350;28;21137;-42
2022/06/17 05:19:50;;;;;;;10.80;9.53;;;;;;;;;;5055167;28;20179;-42
2022/06/17 05:22:27;;;;;;;10.83;8.70;;;;;;;;;;5053161;28;20687;-42
2022/06/17 05:24:53;;;;;;;10.53;9.43;;;;;;;;;;5057973;28;21528;-42
2022/06/17 05:27:19;;;;;;;13.13;9.17;;;;;;;;;;5054289;28;20687;-43
2022/06/17 05:29:45;;;;;;;12.23;9.97;;;;;;;;;;5053679;28;20633;-42
2022/06/17 05:32:13;;;;;;;11.93;8.07;;;;;;;;;;5055342;28;20514;-42
2022/06/17 05:34:39;;;;;;;9.10;8.10;;;;;;;;;;5054777;28;20545;-42
2022/06/17 05:37:05;;;;;;;11.77;8.47;;;;;;;;;;5052794;28;20344;-42
2022/06/17 05:39:31;;;;;;;12.53;10.43;;;;;;;;;;5052541;28;20791;-43
2022/06/17 05:41:57;;;;;;;11.93;9.50;;;;;;;;;;5056192;28;20880;-42
2022/06/17 05:44:23;;;;;;;16.37;10.60;;;;;;;;;;5055614;28;20182;-41
2022/06/17 05:46:49;;;;;;;11.03;9.93;;;;;;;;;;5058025;28;20635;-42
2022/06/17 05:49:15;;;;;;;14.83;10.37;;;;;;;;;;5056026;28;20207;-43
2022/06/17 05:51:42;;;;;;;10.43;9.10;;;;;;;;;;5053565;28;20241;-42
2022/06/17 05:54:08;;;;;;;11.57;10.37;;;;;;;;;;5056017;28;20629;-42
2022/06/17 05:56:34;;;;;;;11.80;10.63;;;;;;;;;;5058464;28;20174;-42
2022/06/17 05:59:00;;;;;;;14.70;11.27;;;;;;;;;;5061750;28;20193;-42
2022/06/17 06:01:26;;;;;;;12.90;11.17;;;;;;;;;;5060713;28;20766;-43
2022/06/17 06:03:52;;;;;;;14.57;11.23;;;;;;;;;;5061187;28;20178;-43
2022/06/17 06:06:18;;;;;;;17.80;12.37;;;;;;;;;;5063419;28;21000;-42
2022/06/17 06:08:44;;;;;;;12.33;10.37;;;;;;;;;;5059085;28;20384;-43
2022/06/17 06:11:10;;;;;;;14.33;11.50;;;;;;;;;;5058050;28;20174;-42
2022/06/17 06:13:37;;;;;;;15.17;11.40;;;;;;;;;;5062571;28;20290;-42
2022/06/17 06:16:04;;;;;;;14.03;10.67;;;;;;;;;;5060847;28;21029;-42
2022/06/17 06:18:34;;;;;;;12.97;9.77;;;;;;;;;;5058579;28;20256;-43
2022/06/17 06:21:04;;;;;;;13.40;11.50;;;;;;;;;;5059392;28;20189;-42
2022/06/17 06:23:30;;;;;;;12.27;10.97;;;;;;;;;;5059530;28;20178;-42
2022/06/17 06:25:56;;;;;;;16.53;12.00;;;;;;;;;;5059574;28;21057;-42
2022/06/17 06:28:24;;;;;;;13.67;11.70;;;;;;;;;;5059250;28;20584;-42
2022/06/17 06:30:55;;;;;;;16.90;12.30;;;;;;;;;;5057393;28;20289;-42
2022/06/17 06:33:21;;;;;;;16.80;11.83;;;;;;;;;;5056895;28;20190;-42
2022/06/17 06:35:47;;;;;;;16.30;12.50;;;;;;;;;;5055996;28;20213;-42
2022/06/17 06:38:13;;;;;;;11.53;10.33;;;;;;;;;;5055107;28;20268;-42
2022/06/17 06:40:40;;;;;;;19.93;12.07;;;;;;;;;;5060051;28;20659;-42
2022/06/17 06:43:11;;;;;;;12.43;10.73;;;;;;;;;;5058513;28;20936;-42
2022/06/17 06:45:37;;;;;;;15.70;12.23;;;;;;;;;;5053460;28;20711;-43
2022/06/17 06:48:05;;;;;;;16.60;13.13;;;;;;;;;;5056886;28;20218;-42
2022/06/17 06:50:33;;;;;;;20.73;13.73;;;;;;;;;;5056183;28;20884;-43
2022/06/17 06:52:59;;;;;;;15.93;12.70;;;;;;;;;;5058481;28;20178;-42
2022/06/17 06:55:25;;;;;;;15.00;11.97;;;;;;;;;;5056713;28;20179;-42
2022/06/17 06:57:56;;;;;;;13.70;11.73;;;;;;;;;;5059446;28;20178;-42
2022/06/17 07:00:25;;;;;;;13.20;11.80;;;;;;;;;;5059198;28;20472;-42
2022/06/17 07:02:51;;;;;;;13.70;11.50;;;;;;;;;;5058982;28;20182;-42
2022/06/17 07:05:17;;;;;;;12.20;10.93;;;;;;;;;;5060446;28;20380;-42
2022/06/17 07:07:43;;;;;;;12.27;10.97;;;;;;;;;;5058147;28;21634;-42
2022/06/17 07:10:11;;;;;;;10.87;9.63;;;;;;;;;;5055842;28;20886;-42
2022/06/17 07:12:37;;;;;;;12.93;8.90;;;;;;;;;;5058163;28;20187;-40
2022/06/17 07:15:04;;;;;;;14.20;10.90;;;;;;;;;;5059385;28;20182;-41
2022/06/17 07:17:30;;;;;;;10.50;9.40;;;;;;;;;;5060678;28;20190;-42
2022/06/17 07:19:56;;;;;;;9.50;8.50;;;;;;;;;;5051962;28;20614;-42
2022/06/17 07:22:22;;;;;;;13.80;9.53;;;;;;;;;;5051940;28;20652;-42
2022/06/17 07:24:49;;;;;;;12.27;8.17;;;;;;;;;;5055040;28;20186;-42
2022/06/17 07:27:15;;;;;;;9.37;8.17;;;;;;;;;;5048189;28;20619;-42
2022/06/17 07:29:41;;;;;;;13.00;8.63;;;;;;;;;;5047055;28;20217;-42
2022/06/17 07:32:07;;;;;;;11.23;8.20;;;;;;;;;;5053421;28;20914;-42
2022/06/17 07:34:33;;;;;;;9.40;8.33;;;;;;;;;;5051652;28;20171;-42
2022/06/17 07:39:54;;;;;;;8.23;6.70;;;;;;;;;;5049298;28;20521;-42
2022/06/17 07:42:20;;;;;;;10.30;7.40;;;;;;;;;;5048544;28;20491;-42
2022/06/17 07:44:46;;;;;;;13.23;7.70;;;;;;;;;;5052684;28;20178;-42
2022/06/17 07:47:17;;;;;;;10.50;6.50;;;;;;;;;;5049529;28;20184;-42
2022/06/17 07:49:43;;;;;;;12.50;6.70;;;;;;;;;;5046836;28;20245;-42
2022/06/17 07:52:09;;;;;;;10.93;6.40;;;;;;;;;;5044070;28;20918;-42
2022/06/17 07:54:36;;;;;;;9.83;7.10;;;;;;;;;;5050152;28;20177;-42
2022/06/17 07:57:02;;;;;;;10.47;6.53;;;;;;;;;;5046845;28;20178;-41
2022/06/17 07:59:28;;;;;;;8.50;5.73;;;;;;;;;;5050465;28;20997;-43
2022/06/17 08:01:54;;;;;;;10.37;5.73;;;;;;;;;;5053493;28;20183;-42
2022/06/17 08:04:20;;;;;;;9.00;6.10;;;;;;;;;;5052369;28;20216;-42
2022/06/17 08:06:49;;;;;;;9.67;6.27;;;;;;;;;;5052316;28;20170;-42
2022/06/17 08:09:19;;;;;;;8.57;7.10;;;;;;;;;;5046588;28;20848;-42
2022/06/17 08:11:46;;;;;;;9.57;5.90;;;;;;;;;;5051023;28;20266;-42
2022/06/17 08:14:12;;;;;;;6.77;5.83;;;;;;;;;;5050499;28;20182;-42
2022/06/17 08:16:38;;;;;;;7.53;5.67;;;;;;;;;;5052919;28;21036;-42
2022/06/17 08:19:07;;;;;;;9.10;5.60;;;;;;;;;;5050323;28;22839;-42
2022/06/17 08:21:33;;;;;;;6.80;4.93;;;;;;;;;;5043613;28;20936;-42
2022/06/17 08:23:59;;;;;;;11.57;6.33;;;;;;;;;;5050621;28;20182;-42
2022/06/17 08:26:25;;;;;;;9.43;5.77;;;;;;;;;;5057923;28;20271;-41
2022/06/17 08:28:51;;;;;;;10.97;6.20;;;;;;;;;;5056628;28;20209;-42
2022/06/17 08:31:17;;;;;;;8.73;6.20;;;;;;;;;;5050897;28;20949;-42
2022/06/17 08:33:44;;;;;;;11.13;5.97;;;;;;;;;;5049549;28;20638;-42
2022/06/17 08:36:18;;;;;;;9.17;4.93;;;;;;;;;;5052348;28;21416;-43
2022/06/17 08:38:50;;;;;;;7.47;5.30;;;;;;;;;;5056952;28;20917;-42
2022/06/17 08:41:22;;;;;;;10.30;6.17;;;;;;;;;;5055411;28;20178;-42
2022/06/17 08:43:51;;;;;;;7.03;5.37;;;;;;;;;;5058913;28;20179;-42
2022/06/17 08:46:17;;;;;;;8.37;5.47;;;;;;;;;;5059210;28;20837;-42
2022/06/17 08:49:14;;;;;;;9.57;5.20;;;;;;;;;;5056766;28;20202;-42
2022/06/17 08:51:50;;;;;;;10.53;6.00;;;;;;;;;;5061857;28;20364;-42
2022/06/17 08:54:34;;;;;;;5.53;4.57;;;;;;;;;;5055356;28;20178;-41
2022/06/17 08:57:16;;;;;;;8.57;5.73;;;;;;;;;;5050816;28;20174;-42
2022/06/17 08:59:42;;;;;;;8.00;5.00;;;;;;;;;;5047402;28;20564;-42
2022/06/17 09:02:23;;;;;;;6.60;5.43;;;;;;;;;;5044830;28;20194;-42
2022/06/17 09:05:01;;;;;;;7.13;6.17;;;;;;;;;;5043668;28;20501;-42
2022/06/17 09:07:33;;;;;;;6.53;5.00;;;;;;;;;;5044416;28;20187;-42
2022/06/17 09:10:06;;;;;;;7.87;5.60;;;;;;;;;;5047973;28;20175;-43
2022/06/17 09:12:37;;;;;;;7.13;4.53;;;;;;;;;;5049276;28;20242;-43
2022/06/17 09:15:07;;;;;;;5.83;5.23;;;;;;;;;;5048617;28;20191;-42
2022/06/17 09:17:33;;;;;;;7.83;5.43;;;;;;;;;;5050525;28;20594;-42
2022/06/17 09:20:01;;;;;;;8.10;5.00;;;;;;;;;;5051251;28;20706;-42
2022/06/17 09:22:34;;;;;;;5.60;4.73;;;;;;;;;;5047024;28;20221;-41
2022/06/17 09:25:08;;;;;;;9.27;5.40;;;;;;;;;;5048765;28;20508;-42
2022/06/17 09:27:39;;;;;;;8.27;5.33;;;;;;;;;;5053332;28;20813;-43
2022/06/17 09:30:15;;;;;;;11.17;5.33;;;;;;;;;;5046399;28;20525;-43
2022/06/17 09:32:47;;;;;;;7.63;5.23;;;;;;;;;;5052791;28;20175;-43
2022/06/17 09:35:25;;;;;;;8.13;4.60;;;;;;;;;;5049025;28;20346;-43
2022/06/17 09:38:01;;;;;;;8.27;4.37;;;;;;;;;;5039512;28;20602;-42
2022/06/17 09:40:31;;;;;;;4.97;4.10;;;;;;;;;;5046642;28;20261;-42
2022/06/17 09:43:03;;;;;;;9.67;4.30;;;;;;;;;;5048405;28;20285;-42
2022/06/17 09:45:51;;;;;;;8.23;4.20;;;;;;;;;;5046805;28;20574;-43
2022/06/17 09:48:22;;;;;;;7.97;5.20;;;;;;;;;;5047678;28;20536;-43
2022/06/17 09:50:59;;;;;;;8.77;4.80;;;;;;;;;;5046851;28;20958;-43
2022/06/17 09:53:30;;;;;;;9.13;4.37;;;;;;;;;;5050984;28;20255;-42
2022/06/17 09:56:04;;;;;;;8.30;4.57;;;;;;;;;;5046542;28;20174;-43
2022/06/17 09:58:34;;;;;;;5.37;4.60;;;;;;;;;;5047930;28;20749;-43
2022/06/17 10:01:01;;;;;;;6.40;4.60;;;;;;;;;;5050786;28;20696;-43
2022/06/17 10:03:30;;;;;;;9.87;4.80;;;;;;;;;;5045908;28;20227;-43
2022/06/17 10:06:00;;;;;;;5.87;4.27;;;;;;;;;;5043468;28;20176;-42
2022/06/17 10:08:45;;;;;;;7.33;4.60;;;;;;;;;;5047244;28;20213;-42
2022/06/17 10:11:18;;;;;;;7.77;4.33;;;;;;;;;;5049408;28;20241;-43
2022/06/17 10:14:03;;;;;;;7.90;4.40;;;;;;;;;;5046120;28;20932;-42
2022/06/17 10:19:35;;;;;;;10.00;4.80;;;;;;;;;;5044450;28;20660;-42
2022/06/17 10:22:04;;;;;;;5.70;4.47;;;;;;;;;;5046214;28;20186;-43
2022/06/17 10:24:30;;;;;;;10.23;4.93;;;;;;;;;;5045527;28;20718;-43
2022/06/17 10:27:08;;;;;;;4.33;3.93;;;;;;;;;;5047305;28;21028;-43
2022/06/17 10:29:34;;;;;;;4.63;4.00;;;;;;;;;;5047927;28;20198;-42
2022/06/17 10:32:00;;;;;;;6.23;4.90;;;;;;;;;;5046629;28;20215;-42
2022/06/17 10:34:43;;;;;;;5.90;4.53;;;;;;;;;;5046338;28;20495;-42
2022/06/17 10:37:10;;;;;;;8.17;4.33;;;;;;;;;;5048153;28;20672;-42
2022/06/17 10:39:37;;;;;;;5.80;4.30;;;;;;;;;;5047595;28;20186;-42
2022/06/17 10:42:03;;;;;;;7.73;4.33;;;;;;;;;;5046664;28;20267;-42
2022/06/17 10:44:30;;;;;;;5.07;3.90;;;;;;;;;;5046475;28;21163;-43
2022/06/17 10:47:20;;;;;;;4.77;4.10;;;;;;;;;;5045653;28;20705;-43
2022/06/17 10:49:51;;;;;;;7.40;4.80;;;;;;;;;;5044995;28;20865;-43
2022/06/17 10:52:23;;;;;;;6.97;4.40;;;;;;;;;;5045826;28;20173;-43
2022/06/17 10:54:51;;;;;;;6.47;4.23;;;;;;;;;;5045308;28;20743;-42
2022/06/17 10:57:28;;;;;;;6.10;4.23;;;;;;;;;;5046477;28;20173;-42
2022/06/17 10:59:55;;;;;;;6.63;4.07;;;;;;;;;;5045459;28;20491;-43
2022/06/17 11:02:21;;;;;;;7.40;4.07;;;;;;;;;;5046031;28;20182;-42
2022/06/17 11:04:51;;;;;;;5.60;4.10;;;;;;;;;;5049060;28;20628;-42
2022/06/17 11:07:18;;;;;;;7.43;4.87;;;;;;;;;;5046128;28;21002;-42
2022/06/17 11:09:52;;;;;;;9.43;4.87;;;;;;;;;;5043495;28;20200;-43
2022/06/17 11:12:21;;;;;;;5.37;4.20;;;;;;;;;;5047004;28;20380;-42
2022/06/17 11:14:47;;;;;;;5.13;4.33;;;;;;;;;;5044987;28;20886;-42
2022/06/17 11:17:32;;;;;;;6.70;4.87;;;;;;;;;;5045876;28;21057;-43
2022/06/17 11:20:01;;;;;;;6.53;4.67;;;;;;;;;;5050346;28;20182;-42
2022/06/17 11:22:30;;;;;;;5.50;4.40;;;;;;;;;;5043942;28;20196;-42
2022/06/17 11:25:08;;;;;;;8.87;4.57;;;;;;;;;;5042085;28;20814;-42
2022/06/17 11:27:41;;;;;;;4.93;4.40;;;;;;;;;;5048410;28;20186;-42
2022/06/17 11:30:13;;;;;;;10.23;4.63;;;;;;;;;;5043960;28;20241;-42
2022/06/17 11:32:43;;;;;;;6.07;4.33;;;;;;;;;;5042099;28;20722;-42
2022/06/17 11:35:27;;;;;;;5.60;5.00;;;;;;;;;;5047946;28;20525;-42
2022/06/17 11:37:54;;;;;;;8.20;4.87;;;;;;;;;;5041978;28;20171;-42
2022/06/17 11:40:21;;;;;;;5.17;4.20;;;;;;;;;;5042515;28;20178;-42
2022/06/17 11:42:50;;;;;;;4.83;4.40;;;;;;;;;;5044634;28;20175;-42
2022/06/17 11:45:18;;;;;;;7.60;5.10;;;;;;;;;;5044639;28;20295;-42
2022/06/17 11:47:47;;;;;;;8.20;4.70;;;;;;;;;;5042928;28;20649;-43
2022/06/17 11:50:25;;;;;;;5.47;4.33;;;;;;;;;;5043970;28;20210;-42
2022/06/17 11:52:52;;;;;;;6.53;5.63;;;;;;;;;;5043554;28;20170;-43
2022/06/17 11:55:26;;;;;;;5.87;4.83;;;;;;;;;;5044388;28;20175;-42
2022/06/17 11:57:53;;;;;;;7.40;5.20;;;;;;;;;;5045313;28;20185;-42
2022/06/17 12:00:19;;;;;;;9.33;6.00;;;;;;;;;;5043886;28;20179;-41
2022/06/17 12:02:59;;;;;;;6.80;5.30;;;;;;;;;;5043209;28;20217;-42
2022/06/17 12:05:25;;;;;;;9.17;5.60;;;;;;;;;;5042943;28;20863;-42
2022/06/17 12:07:55;;;;;;;7.57;5.60;;;;;;;;;;5047037;28;20271;-42
2022/06/17 12:10:21;;;;;;;6.37;5.20;;;;;;;;;;5046251;28;20175;-42
2022/06/17 12:12:48;;;;;;;6.53;5.60;;;;;;;;;;5045870;28;20175;-42
2022/06/17 12:15:15;;;;;;;7.03;5.23;;;;;;;;;;5041408;28;21208;-42
2022/06/17 12:17:42;;;;;;;11.57;5.33;;;;;;;;;;5044192;28;20324;-43
2022/06/17 12:20:34;;;;;;;6.70;5.10;;;;;;;;;;5044479;28;20731;-42
2022/06/17 12:23:07;;;;;;;5.60;5.00;;;;;;;;;;5040225;28;20218;-41
2022/06/17 12:25:36;;;;;;;6.83;5.40;;;;;;;;;;5044831;28;20241;-42
2022/06/17 12:28:19;;;;;;;8.10;5.40;;;;;;;;;;5048248;28;20207;-43
2022/06/17 12:30:51;;;;;;;7.07;5.97;;;;;;;;;;5045497;28;20168;-42
2022/06/17 12:33:21;;;;;;;8.83;5.60;;;;;;;;;;5045550;28;20228;-42
2022/06/17 12:35:49;;;;;;;7.70;5.87;;;;;;;;;;5049243;28;20606;-42
2022/06/17 12:38:21;;;;;;;10.63;5.43;;;;;;;;;;5044836;28;20839;-42
2022/06/17 12:40:52;;;;;;;8.17;5.73;;;;;;;;;;5042620;28;20175;-42
2022/06/17 12:43:20;;;;;;;6.70;5.00;;;;;;;;;;5047703;28;20180;-42
2022/06/17 12:45:56;;;;;;;6.73;5.63;;;;;;;;;;5046568;28;20591;-42
2022/06/17 12:48:25;;;;;;;8.40;6.37;;;;;;;;;;5044019;28;20194;-41
2022/06/17 12:54:07;;;;;;;6.93;5.33;;;;;;;;;;5047609;28;20644;-42
2022/06/17 12:57:05;;;;;;;6.53;5.90;;;;;;;;;;5045094;28;20185;-42
2022/06/17 12:59:31;;;;;;;6.53;5.67;;;;;;;;;;5024116;28;20183;-41
2022/06/17 13:02:04;;;;;;;6.63;6.00;;;;;;;;;;5045849;28;20178;-42
2022/06/17 13:04:32;;;;;;;7.27;5.80;;;;;;;;;;5045076;28;20249;-42
2022/06/17 13:07:17;;;;;;;6.93;5.53;;;;;;;;;;5040770;28;20171;-42
2022/06/17 13:09:46;;;;;;;9.63;5.80;;;;;;;;;;5045811;28;20610;-42
2022/06/17 13:12:15;;;;;;;10.17;5.97;;;;;;;;;;5045619;28;20179;-42
2022/06/17 13:14:54;;;;;;;12.90;6.10;;;;;;;;;;5047412;28;20183;-42
2022/06/17 13:17:29;;;;;;;6.27;5.67;;;;;;;;;;5046165;28;20188;-42
2022/06/17 13:19:59;;;;;;;6.60;5.30;;;;;;;;;;5047037;28;20179;-42
2022/06/17 13:22:38;;;;;;;8.03;5.53;;;;;;;;;;5046453;28;20187;-42
2022/06/17 13:25:14;;;;;;;8.27;6.10;;;;;;;;;;5046239;28;20375;-42
2022/06/17 13:27:44;;;;;;;7.00;5.70;;;;;;;;;;5048234;28;20189;-42
2022/06/17 13:30:15;;;;;;;7.63;5.20;;;;;;;;;;5044782;28;20480;-43
2022/06/17 13:32:41;;;;;;;8.67;5.33;;;;;;;;;;5053420;28;20188;-42
2022/06/17 13:35:15;;;;;;;9.13;5.20;;;;;;;;;;5055805;28;20176;-42
2022/06/17 13:37:45;;;;;;;7.90;5.03;;;;;;;;;;5049428;28;20177;-42
2022/06/17 13:40:24;;;;;;;11.63;6.03;;;;;;;;;;5048439;28;20187;-41
2022/06/17 13:42:53;;;;;;;8.87;5.53;;;;;;;;;;5049218;28;20510;-42
2022/06/17 13:45:22;;;;;;;13.23;5.13;;;;;;;;;;5046976;28;20623;-42
2022/06/17 13:47:51;;;;;;;8.93;5.60;;;;;;;;;;5046999;28;20349;-42
2022/06/17 13:50:37;;;;;;;8.13;5.10;;;;;;;;;;5044321;28;20585;-42
2022/06/17 13:53:17;;;;;;;9.97;5.67;;;;;;;;;;5045436;28;20621;-42
2022/06/17 13:55:54;;;;;;;6.30;5.00;;;;;;;;;;5047159;28;20176;-43
2022/06/17 13:58:33;;;;;;;7.70;4.97;;;;;;;;;;5055305;28;20183;-42
2022/06/17 14:01:06;;;;;;;6.83;5.13;;;;;;;;;;5055977;28;20212;-42
2022/06/17 14:03:54;;;;;;;8.63;5.00;;;;;;;;;;5060179;28;20178;-42
2022/06/17 14:06:25;;;;;;;7.10;5.07;;;;;;;;;;5050242;28;20181;-42
2022/06/17 14:08:59;;;;;;;6.80;5.07;;;;;;;;;;5054609;28;20201;-42
2022/06/17 14:11:38;;;;;;;10.70;5.33;;;;;;;;;;5048420;28;20981;-41
2022/06/17 14:14:20;;;;;;;6.50;4.80;;;;;;;;;;5043486;28;20177;-42
2022/06/17 14:16:46;;;;;;;7.07;5.47;;;;;;;;;;5045073;28;20182;-42
2022/06/17 14:19:18;;;;;;;7.57;4.47;;;;;;;;;;5041527;28;20208;-42
2022/06/17 14:21:47;;;;;;;7.20;5.40;;;;;;;;;;5048525;28;20196;-43
2022/06/17 14:24:14;;;;;;;9.63;5.20;;;;;;;;;;5048811;28;20951;-42
2022/06/17 14:26:40;;;;;;;4.80;4.27;;;;;;;;;;5042346;28;20864;-42
2022/06/17 14:29:07;;;;;;;7.03;4.87;;;;;;;;;;5050194;28;20253;-42
2022/06/17 14:31:34;;;;;;;9.13;5.00;;;;;;;;;;5054254;28;20628;-42
2022/06/17 14:34:08;;;;;;;7.20;4.67;;;;;;;;;;5045215;28;20180;-42
2022/06/17 14:36:40;;;;;;;7.37;4.93;;;;;;;;;;5045182;28;20262;-42
2022/06/17 14:39:24;;;;;;;7.43;5.07;;;;;;;;;;5045709;28;20442;-40
2022/06/17 14:42:02;;;;;;;7.77;5.13;;;;;;;;;;5038261;28;20673;-42
2022/06/17 14:44:31;;;;;;;6.63;4.70;;;;;;;;;;5040866;28;20589;-42
2022/06/17 14:47:16;;;;;;;7.00;5.05;;;;;;;;;;5043102;28;20603;-42
2022/06/17 14:50:00;;;;;;;7.53;4.80;;;;;;;;;;5040219;28;20212;-42
2022/06/17 14:52:26;;;;;;;6.97;4.70;;;;;;;;;;5045719;28;20167;-42
2022/06/17 14:55:02;;;;;;;7.97;4.60;;;;;;;;;;5046799;28;20167;-41
2022/06/17 14:57:30;;;;;;;7.53;4.43;;;;;;;;;;5047714;28;21153;-42
2022/06/17 15:00:22;;;;;;;8.60;4.50;;;;;;;;;;5048533;28;20188;-42
2022/06/17 15:02:52;;;;;;;9.67;4.63;;;;;;;;;;5042644;28;20180;-42
2022/06/17 15:05:29;;;;;;;7.37;3.93;;;;;;;;;;5049058;28;20214;-43
2022/06/17 15:08:14;;;;;;;6.73;4.23;;;;;;;;;;5050107;28;20466;-42